Thomaston, Indiana
Current Conditions -  °F | °C
As of 10:56 AM on Saturday 25 Oct 2014 (Local Time) from KVPZ Reporting Station
Haze Haze  
Wind Chill: 63°   Ceiling: Unl
Heat Index: 63°   Visibility: 6mi
Dew Point: 55°   Wind: 9mph
Humidity: 75%   Direction: 270°W
Pressure: 29.95"   Gusts: NA
Location:  41.4092°N, 86.8646°W
Report Text: KVPZ 251556Z AUTO 27008KT 6SM HZ FEW013 17/13 A2995 RMK AO2 SLP142 T01720128 TSNO
Loading
Personal Weather Stations






























Interactive Weather Map
Tropical Storm Tracking
New forecast layout! Learn more

10-Day Weather Forecast

Advertisements
Track Severe Weather on mobile